Race profile

BAA Boston
Boston MA/USA
19 Apr 2004
Road
Marathon
Acceptable for rankings, not record quality
Point-to-point course with net drop of 3.1 m/km
Certified course
Total: 16743
Men: 10504
Women: 6239
$242,500
Boston

Results (men)

Finished Time Flags Given name Surname Alternate name Citizenship Birth date Prize money Actions
1 2:10:37 a Timothy Cherigat KEN 29 Dec 1976 $80,000
2 2:11:49 a Robert Cheboror KEN 09 Sep 1978 $40,000
3 2:13:38 a Martin Lel Kiptolo KEN 28 Oct 1978 $22,500
4 2:14:34 a Stephen Kiogora KEN 29 Nov 1976 $18,000
5 2:17:30 a Hailu Negussie ETH 16 Apr 1978 $14,000
6 2:17:45 a Benjamin Kosgei Kimutai KEN 05 Sep 1971 $12,000
7 2:18:23 a Joshua Kipkemboi Kimeli KEN 22 Feb 1959 $19,000
8 2:19:31 a Andrew Letherby AUS 19 Sep 1973 $7,400
9 2:21:24 a Fedor Ryzhov RUS 07 Mar 1960 $10,700
10 2:22:45 a Elly Rono Kiplomo KEN 10 Aug 1970 $4,200
11 2:23:48 a Aleksandrs Prokopcuks LAT 02 May 1967 $2,600
12 2:24:06 a Wilson Komen KEN 1975 $2,100
13 2:25:45 a Christopher Zieman USA 28 Nov 1971 $1,800
14 2:26:15 a Salvatore Bettiol ITA 28 Nov 1961 $4,200
15 2:27:15 a Kentaro Suzuki JPN 17 Aug 1977 $1,500
16 2:27:54 a Dawit Terefa ETH 1976
17 2:29:13 a Eric Post USA 26 Mar 1979
18 2:29:17 a Mario Fattore ITA 06 Dec 1975
19 2:29:57 a Michael Wardian USA 12 Apr 1974
20 2:30:50 a John Mentzer USA 12 Sep 1976
21 2:31:17 a Laban Kipkemboi Kipsang KEN 30 Dec 1977
23 2:32:32 a John Mirth USA 08 May 1962 $1,500
25 2:33:22 a Hiroaki Takeda JPN 08 Apr 1975
27 2:33:57 a Brian Spangenberg USA 1964 $1,000
29 2:34:14 a Jason Saitta USA 19 Dec 1977
41 2:39:39 a Philippe Rolly FRA 24 Aug 1972
61 2:43:05 a Chuck Engle USA 25 Feb 1971
84 2:47:38 a George Luke USA 1966
181 2:55:25 a S Mark Courtney USA 07 Jan 1956
DNF DNF a Robert Cheruiyot Kipkoech KEN 26 Sep 1978
DNF DNF a Rodgers Rop KEN 16 Feb 1976
DNF DNF a Mohamed Ouaadi FRA 01 Jan 1969
DNF DNF a David Makori Omiti KEN 06 Nov 1973
DNF DNF a Grzegorz Gajdus POL 16 Jan 1967
DNF DNF a Dmitriy Kapitonov RUS 10 Apr 1968
DNF DNF a Daniele Caimmi ITA 17 Dec 1972
DNF DNF a Gudisa Shentama Kudama ETH 19 Jun 1980
DNF DNF a Joseph Ngeny Kiprotich KEN 20 Jul 1978
DNF DNF a Kevin Collins USA 10 Mar 1971
DNF DNF a Jackson Kipngok Yegon KEN 16 Aug 1960

Results (women)

Finished Time Flags Given name Surname Alternate name Citizenship Birth date Prize money Actions
1 2:54:15 a Greta Varchi ITA 29 Jun 1972
3 2:56:39 a Julie Spencer USA 1976
108 3:25:28 a Amy Haas USA 1975